SBI872 UIII-UWKD
Flight info
| Callsign | SBI872 |
|---|---|
| Flight time | N/A |
| Altitude | 36000 |
| Route | BD R497 RO A229 ROTLI A300 ADONI R372 NH N992 KUMEP T796 NATBI L94 GEMKI |
| Aircraft | A20N/M-SDE2E3FGHIRWXY/LB1 |
Departure
| Time | 2026-05-07 12:57 |
|---|---|
| Airport | Irkutsk International Airport (UIII) |
Arrival
| Time | N/A |
|---|---|
| Airport | Kazan International Airport (UWKD) |
| Time | Latitude | Longitude | Altitude | Speed | Heading |
|---|---|---|---|---|---|
| 2026-05-07 12:37 | 52.27215 | 104.36319 | 1586 ft | 0 kts | 200° |
| 2026-05-07 12:53 | 52.27209 | 104.36316 | 1586 ft | 4 kts | 193° |
| 2026-05-07 12:53 | 52.27162 | 104.36383 | 1586 ft | 16 kts | 120° |
| 2026-05-07 12:53 | 52.27114 | 104.36561 | 1585 ft | 18 kts | 107° |
| 2026-05-07 12:53 | 52.27072 | 104.36762 | 1584 ft | 19 kts | 111° |
| 2026-05-07 12:54 | 52.27024 | 104.36973 | 1584 ft | 20 kts | 111° |
| 2026-05-07 12:54 | 52.26995 | 104.37191 | 1584 ft | 20 kts | 76° |
| 2026-05-07 12:54 | 52.27066 | 104.37370 | 1585 ft | 19 kts | 56° |
| 2026-05-07 12:54 | 52.27104 | 104.37457 | 1586 ft | 0 kts | 54° |
| 2026-05-07 12:55 | 52.27105 | 104.37458 | 1586 ft | 1 kts | 54° |
| 2026-05-07 12:56 | 52.27127 | 104.37509 | 1586 ft | 9 kts | 55° |
| 2026-05-07 12:56 | 52.27175 | 104.37620 | 1587 ft | 15 kts | 60° |
| 2026-05-07 12:56 | 52.27152 | 104.37802 | 1590 ft | 30 kts | 114° |
| 2026-05-07 12:56 | 52.26964 | 104.38521 | 1610 ft | 105 kts | 112° |
| 2026-05-07 12:57 | 52.26599 | 104.39908 | 1649 ft | 160 kts | 112° |
| 2026-05-07 12:57 | 52.26132 | 104.41675 | 2138 ft | 171 kts | 118° |
| 2026-05-07 12:57 | 52.25633 | 104.43385 | 2998 ft | 164 kts | 117° |
| 2026-05-07 12:57 | 52.25175 | 104.45110 | 3691 ft | 170 kts | 115° |
| 2026-05-07 12:58 | 52.24684 | 104.46992 | 4056 ft | 191 kts | 115° |
| 2026-05-07 12:58 | 52.24127 | 104.49127 | 4432 ft | 212 kts | 114° |
| 2026-05-07 12:58 | 52.23516 | 104.51455 | 4768 ft | 235 kts | 114° |
| 2026-05-07 12:58 | 52.23000 | 104.54122 | 5084 ft | 259 kts | 94° |
| 2026-05-07 12:59 | 52.23274 | 104.57135 | 5549 ft | 274 kts | 65° |
| 2026-05-07 12:59 | 52.24376 | 104.59598 | 6339 ft | 274 kts | 38° |
| 2026-05-07 12:59 | 52.26002 | 104.61064 | 6790 ft | 272 kts | 13° |
| 2026-05-07 12:59 | 52.27868 | 104.61260 | 6966 ft | 270 kts | 351° |
| 2026-05-07 13:00 | 52.29713 | 104.60703 | 7003 ft | 269 kts | 348° |
| 2026-05-07 13:00 | 52.31561 | 104.60216 | 7004 ft | 270 kts | 352° |
| 2026-05-07 13:00 | 52.33434 | 104.59998 | 7005 ft | 270 kts | 357° |
| 2026-05-07 13:00 | 52.35317 | 104.59998 | 7004 ft | 270 kts | 360° |
| 2026-05-07 13:01 | 52.37198 | 104.60122 | 7006 ft | 271 kts | 1° |
| 2026-05-07 13:01 | 52.39085 | 104.60300 | 7004 ft | 272 kts | 2° |
| 2026-05-07 13:01 | 52.40969 | 104.60492 | 7008 ft | 271 kts | 2° |
| 2026-05-07 13:01 | 52.42864 | 104.60621 | 7104 ft | 273 kts | 354° |
| 2026-05-07 13:02 | 52.44656 | 104.59759 | 7678 ft | 271 kts | 328° |
| 2026-05-07 13:02 | 52.46008 | 104.57655 | 8649 ft | 268 kts | 303° |
| 2026-05-07 13:02 | 52.46632 | 104.54767 | 9481 ft | 275 kts | 277° |
| 2026-05-07 13:02 | 52.46666 | 104.51587 | 10230 ft | 283 kts | 272° |
| 2026-05-07 13:03 | 52.46602 | 104.48246 | 10536 ft | 304 kts | 271° |
| 2026-05-07 13:03 | 52.46519 | 104.44651 | 10780 ft | 325 kts | 270° |
| 2026-05-07 13:03 | 52.46442 | 104.40912 | 11434 ft | 330 kts | 270° |
| 2026-05-07 13:03 | 52.46376 | 104.37135 | 12213 ft | 332 kts | 271° |
| 2026-05-07 13:04 | 52.46317 | 104.33336 | 12969 ft | 335 kts | 271° |
| 2026-05-07 13:04 | 52.46263 | 104.29501 | 13709 ft | 338 kts | 271° |
| 2026-05-07 13:04 | 52.46209 | 104.25619 | 14353 ft | 342 kts | 270° |
| 2026-05-07 13:04 | 52.46153 | 104.21702 | 14968 ft | 345 kts | 270° |
| 2026-05-07 13:05 | 52.46096 | 104.17748 | 15590 ft | 349 kts | 270° |
| 2026-05-07 13:05 | 52.46036 | 104.13751 | 16222 ft | 352 kts | 270° |
| 2026-05-07 13:05 | 52.45975 | 104.09722 | 16852 ft | 355 kts | 270° |
| 2026-05-07 13:05 | 52.45911 | 104.05654 | 17476 ft | 359 kts | 270° |
| 2026-05-07 13:06 | 52.45847 | 104.01548 | 18098 ft | 362 kts | 270° |
| 2026-05-07 13:06 | 52.45780 | 103.97405 | 18638 ft | 365 kts | 270° |
| 2026-05-07 13:06 | 52.45710 | 103.93231 | 19197 ft | 367 kts | 270° |
| 2026-05-07 13:06 | 52.45639 | 103.89039 | 19735 ft | 369 kts | 269° |
| 2026-05-07 13:07 | 52.45565 | 103.84816 | 20276 ft | 372 kts | 269° |
| 2026-05-07 13:07 | 52.45490 | 103.80611 | 20809 ft | 374 kts | 269° |
| 2026-05-07 13:07 | 52.45412 | 103.76335 | 21340 ft | 377 kts | 269° |
| 2026-05-07 13:07 | 52.45331 | 103.72024 | 21859 ft | 379 kts | 269° |
| 2026-05-07 13:08 | 52.45249 | 103.67682 | 22387 ft | 382 kts | 269° |
| 2026-05-07 13:08 | 52.45164 | 103.63316 | 22892 ft | 385 kts | 269° |
| 2026-05-07 13:08 | 52.45077 | 103.58919 | 23402 ft | 387 kts | 269° |
| 2026-05-07 13:08 | 52.44988 | 103.54491 | 23851 ft | 389 kts | 269° |
| 2026-05-07 13:09 | 52.44897 | 103.50041 | 24286 ft | 391 kts | 269° |
| 2026-05-07 13:09 | 52.44804 | 103.45573 | 24711 ft | 393 kts | 269° |
| 2026-05-07 13:09 | 52.44708 | 103.41085 | 25125 ft | 395 kts | 269° |
| 2026-05-07 13:09 | 52.44611 | 103.36572 | 25535 ft | 397 kts | 269° |
| 2026-05-07 13:10 | 52.44511 | 103.32042 | 25934 ft | 399 kts | 269° |
| 2026-05-07 13:10 | 52.44410 | 103.27493 | 26324 ft | 401 kts | 269° |
| 2026-05-07 13:10 | 52.44495 | 103.22920 | 26691 ft | 402 kts | 278° |
| 2026-05-07 13:10 | 52.45137 | 103.18449 | 27054 ft | 404 kts | 289° |
| 2026-05-07 13:11 | 52.46319 | 103.14257 | 27409 ft | 408 kts | 300° |
| 2026-05-07 13:11 | 52.47873 | 103.10352 | 27738 ft | 410 kts | 302° |
| 2026-05-07 13:11 | 52.49442 | 103.06453 | 28067 ft | 412 kts | 302° |
| 2026-05-07 13:11 | 52.51030 | 103.02485 | 28392 ft | 414 kts | 302° |
| 2026-05-07 13:12 | 52.52591 | 102.98569 | 28720 ft | 416 kts | 301° |
| 2026-05-07 13:12 | 52.54185 | 102.94561 | 29029 ft | 418 kts | 301° |
| 2026-05-07 13:12 | 52.55777 | 102.90552 | 29333 ft | 420 kts | 301° |
| 2026-05-07 13:12 | 52.57376 | 102.86519 | 29638 ft | 422 kts | 301° |